sensor_id;sensor_type;location;lat;lon;timestamp;temperature;humidity
63445;DHT22;49573;47.682;9.170;2023-07-29T01:10:58;18.80;84.80
63445;DHT22;49573;47.682;9.170;2023-07-29T01:13:48;17.90;87.80
63445;DHT22;49573;47.682;9.170;2023-07-29T01:16:44;18.00;88.00
63445;DHT22;49573;47.682;9.170;2023-07-29T01:19:42;17.90;88.60
63445;DHT22;49573;47.682;9.170;2023-07-29T01:22:29;17.90;88.50
63445;DHT22;49573;47.682;9.170;2023-07-29T01:25:18;17.90;88.10
63445;DHT22;49573;47.682;9.170;2023-07-29T01:28:03;17.90;87.90
63445;DHT22;49573;47.682;9.170;2023-07-29T01:30:51;17.90;87.80
63445;DHT22;49573;47.682;9.170;2023-07-29T01:33:44;17.90;87.70
63445;DHT22;49573;47.682;9.170;2023-07-29T01:36:32;17.80;87.60
63445;DHT22;49573;47.682;9.170;2023-07-29T01:39:19;17.80;87.50
63445;DHT22;49573;47.682;9.170;2023-07-29T01:42:09;17.80;87.60
63445;DHT22;49573;47.682;9.170;2023-07-29T01:44:55;17.80;87.60
63445;DHT22;49573;47.682;9.170;2023-07-29T01:47:41;17.80;87.90
63445;DHT22;49573;47.682;9.170;2023-07-29T01:50:27;17.70;88.10
63445;DHT22;49573;47.682;9.170;2023-07-29T01:53:13;17.70;87.70
63445;DHT22;49573;47.682;9.170;2023-07-29T01:55:59;17.70;87.70
63445;DHT22;49573;47.682;9.170;2023-07-29T01:58:46;17.70;87.80
63445;DHT22;49573;47.682;9.170;2023-07-29T02:01:32;17.70;87.80
63445;DHT22;49573;47.682;9.170;2023-07-29T02:04:18;17.70;88.10
63445;DHT22;49573;47.682;9.170;2023-07-29T02:07:04;17.70;88.00
63445;DHT22;49573;47.682;9.170;2023-07-29T02:09:50;17.70;88.40
63445;DHT22;49573;47.682;9.170;2023-07-29T02:12:36;17.70;88.10
63445;DHT22;49573;47.682;9.170;2023-07-29T02:15:23;17.70;88.20
63445;DHT22;49573;47.682;9.170;2023-07-29T02:18:09;17.80;88.10
63445;DHT22;49573;47.682;9.170;2023-07-29T02:20:55;17.70;88.60
63445;DHT22;49573;47.682;9.170;2023-07-29T02:23:40;17.70;88.70
63445;DHT22;49573;47.682;9.170;2023-07-29T02:26:26;17.80;88.30
63445;DHT22;49573;47.682;9.170;2023-07-29T02:29:12;17.70;88.00
63445;DHT22;49573;47.682;9.170;2023-07-29T02:31:59;17.80;88.30
63445;DHT22;49573;47.682;9.170;2023-07-29T02:34:45;17.80;88.50
63445;DHT22;49573;47.682;9.170;2023-07-29T02:37:31;17.80;88.40
63445;DHT22;49573;47.682;9.170;2023-07-29T02:40:17;17.70;89.00
63445;DHT22;49573;47.682;9.170;2023-07-29T02:43:03;17.70;89.30
63445;DHT22;49573;47.682;9.170;2023-07-29T02:45:49;17.80;88.90
63445;DHT22;49573;47.682;9.170;2023-07-29T02:48:36;17.80;89.10
63445;DHT22;49573;47.682;9.170;2023-07-29T02:51:22;17.70;89.10
63445;DHT22;49573;47.682;9.170;2023-07-29T02:54:08;17.80;89.00
63445;DHT22;49573;47.682;9.170;2023-07-29T02:56:54;17.80;88.80
63445;DHT22;49573;47.682;9.170;2023-07-29T02:59:40;17.80;88.80
63445;DHT22;49573;47.682;9.170;2023-07-29T03:02:26;17.90;88.80
63445;DHT22;49573;47.682;9.170;2023-07-29T03:05:13;17.80;88.90
63445;DHT22;49573;47.682;9.170;2023-07-29T03:07:59;17.90;88.90
63445;DHT22;49573;47.682;9.170;2023-07-29T03:10:45;17.80;89.00
63445;DHT22;49573;47.682;9.170;2023-07-29T03:13:31;17.80;88.80
63445;DHT22;49573;47.682;9.170;2023-07-29T03:16:17;17.80;88.60
63445;DHT22;49573;47.682;9.170;2023-07-29T03:19:03;17.80;88.30
63445;DHT22;49573;47.682;9.170;2023-07-29T03:21:50;17.80;88.60
63445;DHT22;49573;47.682;9.170;2023-07-29T03:24:36;17.80;88.70
63445;DHT22;49573;47.682;9.170;2023-07-29T03:27:22;17.80;89.20
63445;DHT22;49573;47.682;9.170;2023-07-29T03:30:08;17.80;88.90
63445;DHT22;49573;47.682;9.170;2023-07-29T03:32:54;17.80;88.80
63445;DHT22;49573;47.682;9.170;2023-07-29T03:35:40;17.80;88.60
63445;DHT22;49573;47.682;9.170;2023-07-29T03:38:30;17.80;88.70
63445;DHT22;49573;47.682;9.170;2023-07-29T03:41:18;17.80;88.80
63445;DHT22;49573;47.682;9.170;2023-07-29T03:44:04;17.80;88.70
63445;DHT22;49573;47.682;9.170;2023-07-29T03:46:50;17.80;88.60
63445;DHT22;49573;47.682;9.170;2023-07-29T03:49:36;17.80;89.00
63445;DHT22;49573;47.682;9.170;2023-07-29T03:52:22;17.80;89.40
63445;DHT22;49573;47.682;9.170;2023-07-29T03:55:09;17.80;89.60
63445;DHT22;49573;47.682;9.170;2023-07-29T03:57:55;17.80;89.40
63445;DHT22;49573;47.682;9.170;2023-07-29T04:00:41;17.80;89.30
63445;DHT22;49573;47.682;9.170;2023-07-29T04:03:27;17.80;89.30
63445;DHT22;49573;47.682;9.170;2023-07-29T04:06:13;17.80;89.20
63445;DHT22;49573;47.682;9.170;2023-07-29T04:08:59;17.90;89.00
63445;DHT22;49573;47.682;9.170;2023-07-29T04:11:46;17.90;89.10
63445;DHT22;49573;47.682;9.170;2023-07-29T04:14:32;17.90;89.00
63445;DHT22;49573;47.682;9.170;2023-07-29T04:17:18;17.90;89.40
63445;DHT22;49573;47.682;9.170;2023-07-29T04:20:05;17.90;90.00
63445;DHT22;49573;47.682;9.170;2023-07-29T04:22:51;17.90;89.80
63445;DHT22;49573;47.682;9.170;2023-07-29T04:25:36;17.90;89.40
63445;DHT22;49573;47.682;9.170;2023-07-29T04:28:24;18.00;89.70
63445;DHT22;49573;47.682;9.170;2023-07-29T04:31:10;18.00;89.50
63445;DHT22;49573;47.682;9.170;2023-07-29T04:33:56;18.00;89.60
63445;DHT22;49573;47.682;9.170;2023-07-29T04:36:42;18.00;89.70
63445;DHT22;49573;47.682;9.170;2023-07-29T04:39:28;18.00;89.40
63445;DHT22;49573;47.682;9.170;2023-07-29T04:42:13;18.10;89.50
63445;DHT22;49573;47.682;9.170;2023-07-29T04:45:01;18.10;90.10
63445;DHT22;49573;47.682;9.170;2023-07-29T04:47:47;18.00;90.30
63445;DHT22;49573;47.682;9.170;2023-07-29T04:50:33;18.10;90.00
63445;DHT22;49573;47.682;9.170;2023-07-29T04:53:18;18.20;89.70
63445;DHT22;49573;47.682;9.170;2023-07-29T04:56:04;18.20;89.50
63445;DHT22;49573;47.682;9.170;2023-07-29T04:58:50;18.20;89.50
63445;DHT22;49573;47.682;9.170;2023-07-29T05:01:38;18.30;89.30
63445;DHT22;49573;47.682;9.170;2023-07-29T05:04:24;18.30;88.80
63445;DHT22;49573;47.682;9.170;2023-07-29T05:07:10;18.30;89.10
63445;DHT22;49573;47.682;9.170;2023-07-29T05:09:56;18.30;89.50
63445;DHT22;49573;47.682;9.170;2023-07-29T05:12:42;18.30;89.40
63445;DHT22;49573;47.682;9.170;2023-07-29T05:15:28;18.30;89.40
63445;DHT22;49573;47.682;9.170;2023-07-29T05:18:15;18.30;89.30
63445;DHT22;49573;47.682;9.170;2023-07-29T05:21:01;18.40;89.40
63445;DHT22;49573;47.682;9.170;2023-07-29T05:23:47;18.40;89.40
63445;DHT22;49573;47.682;9.170;2023-07-29T05:26:33;18.50;89.30
63445;DHT22;49573;47.682;9.170;2023-07-29T05:29:19;18.60;89.00
63445;DHT22;49573;47.682;9.170;2023-07-29T05:32:05;18.70;88.70
63445;DHT22;49573;47.682;9.170;2023-07-29T05:34:52;18.70;88.30
63445;DHT22;49573;47.682;9.170;2023-07-29T05:37:38;18.80;88.60
63445;DHT22;49573;47.682;9.170;2023-07-29T05:40:25;18.80;88.80
63445;DHT22;49573;47.682;9.170;2023-07-29T05:43:11;18.80;88.80
63445;DHT22;49573;47.682;9.170;2023-07-29T05:45:57;18.90;89.10
63445;DHT22;49573;47.682;9.170;2023-07-29T05:48:43;19.00;88.80
63445;DHT22;49573;47.682;9.170;2023-07-29T05:51:30;19.00;89.00
63445;DHT22;49573;47.682;9.170;2023-07-29T05:54:17;19.00;88.70
63445;DHT22;49573;47.682;9.170;2023-07-29T05:57:03;19.00;88.80
63445;DHT22;49573;47.682;9.170;2023-07-29T05:59:49;19.00;89.20
63445;DHT22;49573;47.682;9.170;2023-07-29T06:02:34;19.10;88.90
63445;DHT22;49573;47.682;9.170;2023-07-29T06:05:20;19.10;88.70
63445;DHT22;49573;47.682;9.170;2023-07-29T06:08:08;19.20;88.30
63445;DHT22;49573;47.682;9.170;2023-07-29T06:10:54;19.30;88.30
63445;DHT22;49573;47.682;9.170;2023-07-29T06:13:40;19.30;88.00
63445;DHT22;49573;47.682;9.170;2023-07-29T06:16:26;19.40;87.90
63445;DHT22;49573;47.682;9.170;2023-07-29T06:19:12;19.50;88.00
63445;DHT22;49573;47.682;9.170;2023-07-29T06:21:58;19.60;88.10
63445;DHT22;49573;47.682;9.170;2023-07-29T06:24:46;19.70;87.20
63445;DHT22;49573;47.682;9.170;2023-07-29T06:27:32;19.80;87.60
63445;DHT22;49573;47.682;9.170;2023-07-29T06:30:18;20.00;86.90
63445;DHT22;49573;47.682;9.170;2023-07-29T06:33:04;20.10;87.60
63445;DHT22;49573;47.682;9.170;2023-07-29T06:35:50;20.10;87.40
63445;DHT22;49573;47.682;9.170;2023-07-29T06:38:35;20.10;86.80
63445;DHT22;49573;47.682;9.170;2023-07-29T06:41:23;20.30;87.00
63445;DHT22;49573;47.682;9.170;2023-07-29T06:44:09;20.30;86.10
63445;DHT22;49573;47.682;9.170;2023-07-29T06:46:55;20.40;85.10
63445;DHT22;49573;47.682;9.170;2023-07-29T06:49:43;20.50;85.30
63445;DHT22;49573;47.682;9.170;2023-07-29T06:52:29;20.50;83.60
63445;DHT22;49573;47.682;9.170;2023-07-29T06:55:15;20.40;83.60
63445;DHT22;49573;47.682;9.170;2023-07-29T06:58:02;20.60;84.70
63445;DHT22;49573;47.682;9.170;2023-07-29T07:00:48;20.80;85.90
63445;DHT22;49573;47.682;9.170;2023-07-29T07:03:34;20.80;84.90
63445;DHT22;49573;47.682;9.170;2023-07-29T07:06:20;21.10;85.60
63445;DHT22;49573;47.682;9.170;2023-07-29T07:09:06;21.30;83.00
63445;DHT22;49573;47.682;9.170;2023-07-29T07:11:52;21.10;81.40
63445;DHT22;49573;47.682;9.170;2023-07-29T07:14:39;21.20;79.90
63445;DHT22;49573;47.682;9.170;2023-07-29T07:17:25;21.30;78.60
63445;DHT22;49573;47.682;9.170;2023-07-29T07:20:11;21.10;80.30
63445;DHT22;49573;47.682;9.170;2023-07-29T07:22:57;21.30;81.90
63445;DHT22;49573;47.682;9.170;2023-07-29T07:25:43;21.20;79.70
63445;DHT22;49573;47.682;9.170;2023-07-29T07:28:29;21.30;80.80
63445;DHT22;49573;47.682;9.170;2023-07-29T07:31:16;21.30;81.20
63445;DHT22;49573;47.682;9.170;2023-07-29T07:34:02;21.40;80.90
63445;DHT22;49573;47.682;9.170;2023-07-29T07:36:48;21.50;80.50
63445;DHT22;49573;47.682;9.170;2023-07-29T07:39:34;21.60;80.20
63445;DHT22;49573;47.682;9.170;2023-07-29T07:42:20;21.80;78.60
63445;DHT22;49573;47.682;9.170;2023-07-29T07:45:06;22.00;79.20
63445;DHT22;49573;47.682;9.170;2023-07-29T07:47:53;21.80;76.40
63445;DHT22;49573;47.682;9.170;2023-07-29T07:50:39;21.80;76.70
63445;DHT22;49573;47.682;9.170;2023-07-29T07:53:25;21.80;77.20
63445;DHT22;49573;47.682;9.170;2023-07-29T07:56:12;22.00;76.70
63445;DHT22;49573;47.682;9.170;2023-07-29T07:58:58;21.90;76.00
63445;DHT22;49573;47.682;9.170;2023-07-29T08:01:43;22.10;76.20
63445;DHT22;49573;47.682;9.170;2023-07-29T08:04:31;22.20;76.40
63445;DHT22;49573;47.682;9.170;2023-07-29T08:07:17;22.30;76.30
63445;DHT22;49573;47.682;9.170;2023-07-29T08:10:03;22.40;76.70
63445;DHT22;49573;47.682;9.170;2023-07-29T08:12:49;22.60;76.70
63445;DHT22;49573;47.682;9.170;2023-07-29T08:15:35;22.60;74.90
63445;DHT22;49573;47.682;9.170;2023-07-29T08:18:20;22.80;74.00
63445;DHT22;49573;47.682;9.170;2023-07-29T08:21:08;22.80;71.60
63445;DHT22;49573;47.682;9.170;2023-07-29T08:23:54;22.90;74.40
63445;DHT22;49573;47.682;9.170;2023-07-29T08:26:40;23.10;73.80
63445;DHT22;49573;47.682;9.170;2023-07-29T08:29:26;23.00;71.30
63445;DHT22;49573;47.682;9.170;2023-07-29T08:32:11;22.80;71.90
63445;DHT22;49573;47.682;9.170;2023-07-29T08:34:57;22.80;72.40
63445;DHT22;49573;47.682;9.170;2023-07-29T08:37:45;23.00;73.20
63445;DHT22;49573;47.682;9.170;2023-07-29T08:40:30;23.00;71.10
63445;DHT22;49573;47.682;9.170;2023-07-29T08:43:19;22.90;71.50
63445;DHT22;49573;47.682;9.170;2023-07-29T08:46:05;23.10;73.20
63445;DHT22;49573;47.682;9.170;2023-07-29T08:48:52;23.30;72.20
63445;DHT22;49573;47.682;9.170;2023-07-29T08:51:38;23.50;73.40
63445;DHT22;49573;47.682;9.170;2023-07-29T08:54:26;23.50;70.70
63445;DHT22;49573;47.682;9.170;2023-07-29T08:57:12;23.50;71.70
63445;DHT22;49573;47.682;9.170;2023-07-29T08:59:59;23.60;71.60
63445;DHT22;49573;47.682;9.170;2023-07-29T09:02:46;23.60;70.70
63445;DHT22;49573;47.682;9.170;2023-07-29T09:05:32;23.70;71.60
63445;DHT22;49573;47.682;9.170;2023-07-29T09:08:19;24.10;72.50
63445;DHT22;49573;47.682;9.170;2023-07-29T09:11:06;24.10;69.60
63445;DHT22;49573;47.682;9.170;2023-07-29T09:13:52;24.20;69.30
63445;DHT22;49573;47.682;9.170;2023-07-29T09:16:38;24.20;70.20
63445;DHT22;49573;47.682;9.170;2023-07-29T09:19:24;24.40;70.80
63445;DHT22;49573;47.682;9.170;2023-07-29T09:22:17;24.40;70.60
63445;DHT22;49573;47.682;9.170;2023-07-29T09:25:03;24.60;69.30
63445;DHT22;49573;47.682;9.170;2023-07-29T09:27:50;24.30;69.70
63445;DHT22;49573;47.682;9.170;2023-07-29T09:30:36;24.70;69.20
63445;DHT22;49573;47.682;9.170;2023-07-29T09:33:23;24.50;68.40
63445;DHT22;49573;47.682;9.170;2023-07-29T09:36:10;24.50;68.80
63445;DHT22;49573;47.682;9.170;2023-07-29T09:38:57;24.50;68.30
63445;DHT22;49573;47.682;9.170;2023-07-29T09:41:46;24.70;66.60
63445;DHT22;49573;47.682;9.170;2023-07-29T09:44:36;24.60;67.30
63445;DHT22;49573;47.682;9.170;2023-07-29T09:47:23;24.80;66.50
63445;DHT22;49573;47.682;9.170;2023-07-29T09:50:09;24.70;66.10
63445;DHT22;49573;47.682;9.170;2023-07-29T09:52:55;24.90;65.00
63445;DHT22;49573;47.682;9.170;2023-07-29T09:55:45;24.80;64.90
63445;DHT22;49573;47.682;9.170;2023-07-29T09:58:31;25.00;66.70
63445;DHT22;49573;47.682;9.170;2023-07-29T10:01:19;25.20;65.30
63445;DHT22;49573;47.682;9.170;2023-07-29T10:04:05;25.20;67.10
63445;DHT22;49573;47.682;9.170;2023-07-29T10:06:51;25.40;66.20
63445;DHT22;49573;47.682;9.170;2023-07-29T10:09:38;25.50;66.30
63445;DHT22;49573;47.682;9.170;2023-07-29T10:12:24;25.50;64.00
63445;DHT22;49573;47.682;9.170;2023-07-29T10:15:10;25.60;64.70
63445;DHT22;49573;47.682;9.170;2023-07-29T19:02:01;25.50;63.40
63445;DHT22;49573;47.682;9.170;2023-07-29T19:04:47;20.00;81.20
63445;DHT22;49573;47.682;9.170;2023-07-29T19:07:33;20.00;81.20
63445;DHT22;49573;47.682;9.170;2023-07-29T19:10:21;20.00;81.20
63445;DHT22;49573;47.682;9.170;2023-07-29T19:13:07;20.00;81.50
63445;DHT22;49573;47.682;9.170;2023-07-29T19:15:53;19.90;81.00
63445;DHT22;49573;47.682;9.170;2023-07-29T19:18:43;19.90;81.20
63445;DHT22;49573;47.682;9.170;2023-07-29T19:21:29;19.80;81.10
63445;DHT22;49573;47.682;9.170;2023-07-29T19:24:16;19.80;80.40
63445;DHT22;49573;47.682;9.170;2023-07-29T19:27:02;19.80;80.20
63445;DHT22;49573;47.682;9.170;2023-07-29T19:29:51;19.80;80.50
63445;DHT22;49573;47.682;9.170;2023-07-29T19:32:37;19.80;80.70
63445;DHT22;49573;47.682;9.170;2023-07-29T19:35:25;19.80;80.80
63445;DHT22;49573;47.682;9.170;2023-07-29T19:38:12;19.80;80.80
63445;DHT22;49573;47.682;9.170;2023-07-29T19:40:59;19.70;81.10
63445;DHT22;49573;47.682;9.170;2023-07-29T19:43:45;19.70;81.30
63445;DHT22;49573;47.682;9.170;2023-07-29T19:46:32;19.70;81.30
63445;DHT22;49573;47.682;9.170;2023-07-29T19:49:19;19.70;81.40
63445;DHT22;49573;47.682;9.170;2023-07-29T19:52:06;19.60;81.20
63445;DHT22;49573;47.682;9.170;2023-07-29T19:54:52;19.60;81.20
63445;DHT22;49573;47.682;9.170;2023-07-29T19:57:38;19.60;81.30
63445;DHT22;49573;47.682;9.170;2023-07-29T20:00:24;19.50;81.10
63445;DHT22;49573;47.682;9.170;2023-07-29T20:03:10;19.60;81.20
63445;DHT22;49573;47.682;9.170;2023-07-29T20:05:56;19.60;81.60
63445;DHT22;49573;47.682;9.170;2023-07-29T20:08:44;19.60;81.50
63445;DHT22;49573;47.682;9.170;2023-07-29T20:11:29;19.50;81.10
63445;DHT22;49573;47.682;9.170;2023-07-29T20:14:15;19.50;81.20
63445;DHT22;49573;47.682;9.170;2023-07-29T20:17:01;19.50;81.10
63445;DHT22;49573;47.682;9.170;2023-07-29T20:19:47;19.50;81.30
63445;DHT22;49573;47.682;9.170;2023-07-29T20:22:33;19.50;81.20
63445;DHT22;49573;47.682;9.170;2023-07-29T20:25:20;19.50;81.60
63445;DHT22;49573;47.682;9.170;2023-07-29T20:28:06;19.40;80.90
63445;DHT22;49573;47.682;9.170;2023-07-29T20:30:55;19.40;82.00
63445;DHT22;49573;47.682;9.170;2023-07-29T20:33:42;19.40;82.90
63445;DHT22;49573;47.682;9.170;2023-07-29T20:36:28;19.40;83.20
63445;DHT22;49573;47.682;9.170;2023-07-29T20:39:15;19.30;83.00
63445;DHT22;49573;47.682;9.170;2023-07-29T20:42:02;19.30;83.50
63445;DHT22;49573;47.682;9.170;2023-07-29T20:44:48;19.30;83.70
63445;DHT22;49573;47.682;9.170;2023-07-29T20:47:34;19.30;83.70
63445;DHT22;49573;47.682;9.170;2023-07-29T20:50:21;19.20;83.60
63445;DHT22;49573;47.682;9.170;2023-07-29T20:53:09;19.30;83.70
63445;DHT22;49573;47.682;9.170;2023-07-29T20:55:55;19.20;84.00
63445;DHT22;49573;47.682;9.170;2023-07-29T20:58:42;19.20;83.90
63445;DHT22;49573;47.682;9.170;2023-07-29T21:01:28;19.20;83.90
